Time;durP1;ratioP1;P1;durP2;ratioP2;P2;SDS_P1;SDS_P2;PMS_P1;PMS_P2;Temp;Humidity;BMP_temperature;BMP_pressure;BME280_temperature;BME280_humidity;BME280_pressure;Samples;Min_cycle;Max_cycle;Signal;HPM_P1;HPM_P2
2022/08/17 00:00:13;;;;;;;19.80;17.80;;;19.40;99.90;;;;;;5034024;28;20080;-76
2022/08/17 00:03:04;;;;;;;18.40;16.52;;;19.40;99.90;;;;;;5017252;28;20050;-75
2022/08/17 00:05:34;;;;;;;23.42;20.00;;;19.40;99.90;;;;;;5020709;28;20482;-75
2022/08/17 00:08:00;;;;;;;22.65;20.27;;;19.30;99.90;;;;;;5036032;28;20068;-76
2022/08/17 00:10:25;;;;;;;21.52;19.42;;;19.30;99.90;;;;;;5043748;28;20493;-75
2022/08/17 00:12:51;;;;;;;22.92;20.55;;;19.30;99.90;;;;;;5052259;28;20061;-75
2022/08/17 00:15:21;;;;;;;21.25;19.05;;;19.30;99.90;;;;;;5053354;28;20535;-75
2022/08/17 00:17:49;;;;;;;14.40;12.90;;;19.30;99.90;;;;;;5044270;28;20044;-76
2022/08/17 00:20:15;;;;;;;12.75;10.80;;;19.30;99.90;;;;;;5033426;28;20486;-75
2022/08/17 00:22:41;;;;;;;15.00;12.45;;;19.40;99.90;;;;;;5033389;28;20120;-75
2022/08/17 00:25:11;;;;;;;15.73;13.65;;;19.40;99.90;;;;;;5033125;28;20160;-75
2022/08/17 00:27:38;;;;;;;18.23;15.80;;;19.20;99.90;;;;;;5022879;28;20041;-75
2022/08/17 00:30:06;;;;;;;17.20;15.07;;;19.20;99.90;;;;;;5052016;28;20040;-76
2022/08/17 00:32:46;;;;;;;19.08;17.08;;;19.10;99.90;;;;;;5035061;28;20040;-76
2022/08/17 00:35:14;;;;;;;20.55;18.40;;;19.20;99.90;;;;;;5052269;28;20116;-76
2022/08/17 00:37:40;;;;;;;22.60;20.33;;;19.20;99.90;;;;;;5061764;28;20041;-76
2022/08/17 00:40:10;;;;;;;15.95;13.93;;;19.20;99.90;;;;;;5033303;28;20046;-76
2022/08/17 00:42:36;;;;;;;13.82;12.43;;;19.30;99.90;;;;;;5032920;28;20037;-75
2022/08/17 00:45:04;;;;;;;14.18;12.73;;;19.30;99.90;;;;;;5015876;28;20038;-76
2022/08/17 00:47:30;;;;;;;14.90;13.38;;;19.30;99.90;;;;;;5049233;28;20421;-75
2022/08/17 00:49:56;;;;;;;15.02;13.45;;;19.30;99.90;;;;;;5066147;28;20092;-75
2022/08/17 00:52:27;;;;;;;14.40;12.80;;;19.30;99.90;;;;;;5016385;28;20049;-75
2022/08/17 00:54:54;;;;;;;14.10;12.50;;;19.30;99.90;;;;;;5069349;28;20045;-75
2022/08/17 00:57:34;;;;;;;14.30;12.80;;;19.20;99.90;;;;;;5048708;28;20389;-75
2022/08/17 01:00:08;;;;;;;13.45;12.00;;;19.20;99.90;;;;;;5066063;28;20048;-76
2022/08/17 01:02:38;;;;;;;22.48;20.08;;;19.20;99.90;;;;;;5032886;28;20464;-76
2022/08/17 01:05:06;;;;;;;22.17;19.38;;;19.00;99.90;;;;;;5032509;28;20494;-76
2022/08/17 01:07:32;;;;;;;24.85;21.38;;;19.00;99.90;;;;;;5015790;28;20052;-76
2022/08/17 01:10:01;;;;;;;21.98;19.65;;;18.90;99.90;;;;;;5032491;28;20038;-76
2022/08/17 01:12:28;;;;;;;27.15;24.40;;;18.90;99.90;;;;;;5032517;28;20418;-76
2022/08/17 01:14:53;;;;;;;26.10;23.33;;;19.00;99.90;;;;;;5032078;28;20046;-77
2022/08/17 01:17:19;;;;;;;27.40;24.60;;;19.00;99.90;;;;;;5048952;28;20037;-76
2022/08/17 01:19:45;;;;;;;25.67;23.08;;;19.10;99.90;;;;;;5016146;28;20367;-75
2022/08/17 01:22:10;;;;;;;24.00;21.70;;;19.10;99.90;;;;;;5032531;28;20103;-77
2022/08/17 01:24:39;;;;;;;23.27;20.75;;;19.20;99.90;;;;;;5051546;28;20041;-76
2022/08/17 01:27:05;;;;;;;23.60;21.30;;;19.20;99.90;;;;;;5028669;28;20091;-75
2022/08/17 01:29:32;;;;;;;25.90;23.27;;;19.10;99.90;;;;;;5064394;28;20044;-75
2022/08/17 01:32:02;;;;;;;23.73;21.52;;;19.10;99.90;;;;;;5034728;28;20493;-75
2022/08/17 01:34:28;;;;;;;25.42;23.08;;;19.00;99.90;;;;;;5050518;28;20388;-76
2022/08/17 01:36:53;;;;;;;24.35;22.10;;;19.00;99.90;;;;;;5048678;28;20037;-76
2022/08/17 01:39:31;;;;;;;24.60;22.30;;;19.00;99.90;;;;;;5034760;28;20041;-75
2022/08/17 01:42:25;;;;;;;26.05;23.48;;;18.90;99.90;;;;;;5015593;28;20095;-76
2022/08/17 01:44:56;;;;;;;24.60;22.27;;;18.90;99.90;;;;;;5025801;28;20087;-75
2022/08/17 01:47:23;;;;;;;22.77;20.58;;;18.80;99.90;;;;;;5050959;28;20037;-76
2022/08/17 01:49:49;;;;;;;22.95;20.75;;;18.80;99.90;;;;;;5031942;28;20077;-75
2022/08/17 01:52:16;;;;;;;22.20;20.10;;;18.90;99.90;;;;;;5048482;28;20099;-75
2022/08/17 01:54:46;;;;;;;19.67;17.77;;;18.90;99.90;;;;;;5046217;28;20056;-75
2022/08/17 01:57:12;;;;;;;19.30;17.27;;;18.90;99.90;;;;;;5051024;28;20431;-75
2022/08/17 01:59:38;;;;;;;18.85;17.05;;;19.00;99.90;;;;;;5049577;28;20037;-76
2022/08/17 02:02:06;;;;;;;22.40;20.30;;;18.90;99.90;;;;;;5051927;28;20090;-75
2022/08/17 02:04:32;;;;;;;23.23;21.05;;;18.90;99.90;;;;;;5050512;28;20041;-76
2022/08/17 02:06:57;;;;;;;23.65;21.33;;;18.90;99.90;;;;;;5051657;28;20409;-75
2022/08/17 02:09:26;;;;;;;26.20;23.63;;;18.80;99.90;;;;;;5051716;28;20060;-75
2022/08/17 02:11:56;;;;;;;26.08;23.52;;;18.60;99.90;;;;;;5051701;28;20130;-75
2022/08/17 02:14:22;;;;;;;24.33;21.90;;;18.60;99.90;;;;;;5051502;28;20061;-75
2022/08/17 02:16:48;;;;;;;23.05;20.75;;;18.50;99.90;;;;;;5050346;28;20045;-75
2022/08/17 02:19:15;;;;;;;23.92;21.52;;;18.40;99.90;;;;;;5051564;28;20041;-75
2022/08/17 02:21:42;;;;;;;24.27;21.92;;;18.50;99.90;;;;;;5051818;28;20044;-75
2022/08/17 02:24:14;;;;;;;24.67;22.27;;;18.60;99.90;;;;;;5067166;28;20045;-75
2022/08/17 02:26:40;;;;;;;24.67;22.17;;;18.70;99.90;;;;;;5026979;28;20124;-76
2022/08/17 02:29:06;;;;;;;23.27;20.98;;;18.60;99.90;;;;;;5051682;28;20132;-75
2022/08/17 02:31:31;;;;;;;25.48;22.98;;;18.60;99.90;;;;;;5050452;28;20071;-76
2022/08/17 02:33:57;;;;;;;28.25;25.20;;;18.70;99.90;;;;;;5051464;28;20040;-76
2022/08/17 02:36:23;;;;;;;22.70;20.52;;;18.70;99.90;;;;;;5035430;28;20132;-76
2022/08/17 02:38:49;;;;;;;24.77;22.38;;;18.70;99.90;;;;;;5031588;28;20104;-75
2022/08/17 02:41:14;;;;;;;25.27;22.88;;;18.70;99.90;;;;;;5065080;28;20116;-75
2022/08/17 02:43:40;;;;;;;23.25;20.92;;;18.60;99.90;;;;;;5064929;28;20045;-75
2022/08/17 02:46:06;;;;;;;27.83;25.15;;;18.60;99.90;;;;;;5064339;28;20045;-76
2022/08/17 02:48:31;;;;;;;24.15;21.88;;;18.60;99.90;;;;;;5031819;28;20083;-76
2022/08/17 02:50:58;;;;;;;22.25;20.30;;;18.60;99.90;;;;;;5051446;28;20072;-76
2022/08/17 02:53:23;;;;;;;20.73;18.83;;;18.60;99.90;;;;;;5050284;28;20037;-76
2022/08/17 02:55:49;;;;;;;24.08;21.70;;;18.60;99.90;;;;;;5024255;28;20045;-76
2022/08/17 02:58:17;;;;;;;24.20;21.90;;;18.60;99.90;;;;;;5035130;28;20132;-76
2022/08/17 03:00:47;;;;;;;23.70;21.30;;;18.50;99.90;;;;;;5061707;28;20142;-76
2022/08/17 03:03:17;;;;;;;25.42;22.95;;;18.50;99.90;;;;;;5054862;28;20029;-76
2022/08/17 03:05:45;;;;;;;24.95;22.55;;;18.50;99.90;;;;;;5060683;28;20029;-76
2022/08/17 03:08:10;;;;;;;24.38;22.00;;;18.50;99.90;;;;;;5034773;28;20052;-76
2022/08/17 03:10:36;;;;;;;22.73;20.52;;;18.50;99.90;;;;;;5039671;28;20033;-76
2022/08/17 03:13:02;;;;;;;23.33;21.08;;;18.50;99.90;;;;;;5048074;28;20394;-76
2022/08/17 03:15:32;;;;;;;25.20;22.80;;;18.50;99.90;;;;;;5051213;28;20044;-76
2022/08/17 03:17:59;;;;;;;25.55;23.05;;;18.50;99.90;;;;;;5044362;28;20033;-76
2022/08/17 03:20:26;;;;;;;25.52;23.02;;;18.40;99.90;;;;;;5035492;28;20550;-76
2022/08/17 03:22:54;;;;;;;22.30;20.10;;;18.40;99.90;;;;;;5030876;28;20088;-76
2022/08/17 03:25:23;;;;;;;27.10;24.30;;;18.30;99.90;;;;;;5035155;28;20045;-76
2022/08/17 03:27:49;;;;;;;25.42;22.92;;;18.40;99.90;;;;;;5064875;28;20041;-77
2022/08/17 03:30:15;;;;;;;24.13;21.67;;;18.30;99.90;;;;;;5033523;28;20041;-76
2022/08/17 03:32:47;;;;;;;24.63;22.30;;;18.30;99.90;;;;;;5053175;28;20136;-77
2022/08/17 03:35:16;;;;;;;23.60;21.27;;;18.40;99.90;;;;;;5054281;28;20033;-76
2022/08/17 03:37:42;;;;;;;24.52;22.10;;;18.40;99.90;;;;;;5054161;28;20131;-77
2022/08/17 03:40:09;;;;;;;23.63;21.23;;;18.40;99.90;;;;;;5051955;28;20124;-76
2022/08/17 03:42:39;;;;;;;25.73;23.13;;;18.40;99.90;;;;;;5031181;28;20072;-76
2022/08/17 03:45:09;;;;;;;25.17;22.63;;;18.40;99.90;;;;;;5047154;28;20037;-76
2022/08/17 03:58:36;;;;;;;19.80;17.90;;;18.40;99.90;;;;;;5053785;28;20044;-76
2022/08/17 04:01:03;;;;;;;19.85;17.75;;;18.30;99.90;;;;;;5048800;28;20048;-76
2022/08/17 04:03:29;;;;;;;20.85;18.75;;;18.30;99.90;;;;;;5038605;28;20143;-76
2022/08/17 04:05:55;;;;;;;24.67;22.20;;;18.30;99.90;;;;;;5016679;28;20033;-76
2022/08/17 04:08:20;;;;;;;20.90;18.80;;;18.30;99.90;;;;;;5067171;28;20413;-76
2022/08/17 04:10:46;;;;;;;21.98;19.73;;;18.20;99.90;;;;;;5051962;28;20037;-76
2022/08/17 04:13:12;;;;;;;22.95;20.65;;;18.30;99.90;;;;;;5028507;28;20132;-76
2022/08/17 04:15:38;;;;;;;25.65;22.98;;;18.30;99.90;;;;;;5070339;28;20095;-76
2022/08/17 04:18:04;;;;;;;27.05;24.20;;;18.20;99.90;;;;;;5062021;28;20049;-76
2022/08/17 04:20:30;;;;;;;24.08;21.58;;;18.20;99.90;;;;;;5049081;28;20405;-76
2022/08/17 04:23:01;;;;;;;26.80;24.15;;;18.20;99.90;;;;;;5047347;28;20072;-76
2022/08/17 04:25:28;;;;;;;25.27;22.70;;;18.20;99.90;;;;;;5033003;28;20092;-75
2022/08/17 04:27:55;;;;;;;27.30;24.52;;;18.30;99.90;;;;;;5048811;28;20405;-76
2022/08/17 04:30:21;;;;;;;28.30;25.40;;;18.40;99.90;;;;;;5051083;28;20041;-76
2022/08/17 04:32:53;;;;;;;25.25;22.83;;;18.30;99.90;;;;;;5045809;28;20417;-76
2022/08/17 04:35:24;;;;;;;26.33;23.50;;;18.30;99.90;;;;;;5046111;28;20367;-76
2022/08/17 04:37:50;;;;;;;;;;;18.30;99.90;;;;;;5058375;28;20405;-76
2022/08/17 04:43:08;;;;;;;28.20;25.40;;;18.30;99.90;;;;;;5046026;28;20504;-76
2022/08/17 04:45:39;;;;;;;26.92;24.13;;;18.30;99.90;;;;;;5061530;28;20048;-77
2022/08/17 04:48:05;;;;;;;22.60;20.30;;;18.20;99.90;;;;;;5051808;28;20044;-76
2022/08/17 04:50:38;;;;;;;24.20;21.70;;;18.20;99.90;;;;;;5025272;28;20041;-76
2022/08/17 04:53:04;;;;;;;25.90;23.20;;;18.30;99.90;;;;;;5029081;28;20505;-76
2022/08/17 04:55:30;;;;;;;26.13;23.48;;;18.40;99.90;;;;;;5051818;28;20126;-76
2022/08/17 04:57:56;;;;;;;27.90;25.10;;;18.40;99.90;;;;;;5049233;28;20520;-76
2022/08/17 05:00:24;;;;;;;28.63;25.75;;;18.40;99.90;;;;;;5017551;28;20048;-76
2022/08/17 05:02:51;;;;;;;29.42;26.40;;;18.40;99.90;;;;;;5046305;28;20073;-76
2022/08/17 05:05:19;;;;;;;31.13;27.92;;;18.40;99.90;;;;;;5040294;28;20051;-76
2022/08/17 05:07:44;;;;;;;29.42;26.48;;;18.30;99.90;;;;;;5051088;28;20395;-76
2022/08/17 05:10:10;;;;;;;28.92;25.80;;;18.30;99.90;;;;;;5044911;28;20128;-75
2022/08/17 05:12:35;;;;;;;31.40;27.13;;;18.40;99.90;;;;;;5036955;28;20114;-75
2022/08/17 05:15:01;;;;;;;29.85;26.65;;;18.50;99.90;;;;;;5033978;28;20049;-75
2022/08/17 05:17:27;;;;;;;31.00;27.40;;;18.50;99.90;;;;;;5053166;28;20036;-75
2022/08/17 05:19:52;;;;;;;31.73;28.25;;;18.60;99.90;;;;;;5038621;28;20043;-76
2022/08/17 05:22:18;;;;;;;31.50;28.25;;;18.70;99.90;;;;;;5030277;28;20033;-77
2022/08/17 05:24:43;;;;;;;34.30;30.80;;;18.60;99.90;;;;;;5045881;28;20033;-77
2022/08/17 05:27:09;;;;;;;35.50;31.85;;;18.60;99.90;;;;;;5035765;28;20041;-77
2022/08/17 05:29:35;;;;;;;37.85;30.02;;;18.60;99.90;;;;;;5049695;28;20072;-77
2022/08/17 05:32:12;;;;;;;32.05;28.67;;;18.60;99.90;;;;;;5052174;28;20095;-77
2022/08/17 05:34:38;;;;;;;32.47;28.58;;;18.70;99.90;;;;;;5043438;28;20033;-77
2022/08/17 05:37:03;;;;;;;32.28;28.58;;;18.70;99.90;;;;;;5058620;28;20037;-77
2022/08/17 05:39:30;;;;;;;30.92;27.73;;;18.80;99.90;;;;;;5068456;28;20056;-77
2022/08/17 05:41:56;;;;;;;30.10;26.92;;;18.80;99.90;;;;;;5049637;28;20075;-77
2022/08/17 05:44:21;;;;;;;31.25;27.95;;;18.90;99.90;;;;;;5032097;28;20099;-78
2022/08/17 05:46:50;;;;;;;30.40;27.23;;;18.80;99.90;;;;;;5043045;28;20557;-77
2022/08/17 05:49:20;;;;;;;36.80;32.97;;;19.00;99.90;;;;;;5061438;28;20041;-77
2022/08/17 05:52:11;;;;;;;34.20;30.48;;;19.00;99.90;;;;;;5055855;28;20040;-77
2022/08/17 05:55:22;;;;;;;35.13;31.30;;;19.00;99.90;;;;;;5048166;28;20072;-77
2022/08/17 05:58:08;;;;;;;38.50;33.72;;;18.90;99.90;;;;;;5014625;28;20080;-79
2022/08/17 06:01:06;;;;;;;35.33;31.45;;;18.90;99.90;;;;;;5044879;28;20041;-78
2022/08/17 06:03:56;;;;;;;37.17;31.58;;;18.90;99.90;;;;;;5036607;28;20053;-78
2022/08/17 06:06:38;;;;;;;36.60;32.13;;;18.90;99.90;;;;;;5064063;28;20072;-78
2022/08/17 06:09:04;;;;;;;37.95;33.63;;;18.90;99.90;;;;;;5041098;28;20426;-77
2022/08/17 06:11:42;;;;;;;40.35;33.63;;;19.00;99.90;;;;;;5052894;28;20045;-77
2022/08/17 06:14:08;;;;;;;35.38;31.27;;;19.00;99.90;;;;;;5026380;28;20128;-77
2022/08/17 06:16:38;;;;;;;39.03;34.28;;;19.10;99.90;;;;;;5048095;28;20037;-77
2022/08/17 06:19:17;;;;;;;43.78;38.83;;;19.10;99.90;;;;;;5048178;28;20040;-78
2022/08/17 06:21:47;;;;;;;44.25;38.30;;;19.00;99.90;;;;;;5065959;28;20041;-77
2022/08/17 06:24:37;;;;;;;40.33;35.97;;;19.00;99.90;;;;;;5051595;28;20110;-77
2022/08/17 06:27:23;;;;;;;43.33;36.53;;;18.90;99.90;;;;;;5068430;28;20397;-77
2022/08/17 06:30:13;;;;;;;49.45;41.35;;;19.00;99.90;;;;;;5051589;28;20106;-77
2022/08/17 06:32:44;;;;;;;42.75;36.85;;;19.00;99.90;;;;;;5054818;28;20436;-76
2022/08/17 06:35:12;;;;;;;51.92;43.35;;;19.00;99.90;;;;;;5054426;28;20470;-77
2022/08/17 06:37:40;;;;;;;50.83;42.15;;;19.10;99.90;;;;;;5039005;28;20084;-77
2022/08/17 06:40:14;;;;;;;46.28;39.08;;;19.10;99.90;;;;;;5055027;28;20037;-76
2022/08/17 06:42:57;;;;;;;48.20;39.00;;;19.10;99.90;;;;;;5055203;28;20044;-76
2022/08/17 06:45:32;;;;;;;47.15;40.08;;;19.20;99.90;;;;;;5055174;28;20083;-77
2022/08/17 06:48:10;;;;;;;50.15;40.30;;;19.20;99.90;;;;;;5038412;28;20523;-76
2022/08/17 06:50:42;;;;;;;49.85;41.97;;;19.30;99.90;;;;;;5038179;28;20041;-76
2022/08/17 06:53:21;;;;;;;58.42;45.25;;;19.20;99.90;;;;;;5038330;28;20048;-76
2022/08/17 06:55:59;;;;;;;56.60;44.42;;;19.20;99.90;;;;;;5038267;28;20512;-76
2022/08/17 06:58:30;;;;;;;59.03;45.22;;;19.30;99.90;;;;;;5038274;28;20036;-76
2022/08/17 07:00:59;;;;;;;57.80;42.95;;;19.30;99.90;;;;;;5055152;28;20048;-77
2022/08/17 07:03:36;;;;;;;51.00;41.35;;;19.40;99.90;;;;;;5038308;28;20484;-77
2022/08/17 07:06:12;;;;;;;50.42;41.17;;;19.40;99.90;;;;;;5053347;28;20037;-77
2022/08/17 07:08:40;;;;;;;52.53;41.33;;;19.50;99.90;;;;;;5038000;28;20076;-76
2022/08/17 07:11:12;;;;;;;54.95;43.25;;;19.50;99.90;;;;;;5054659;28;20128;-76
2022/08/17 07:13:49;;;;;;;58.20;44.97;;;19.50;99.90;;;;;;5053779;28;20049;-76
2022/08/17 07:16:19;;;;;;;53.88;43.45;;;19.60;99.90;;;;;;5038004;28;20045;-76
2022/08/17 07:18:45;;;;;;;55.65;43.25;;;19.60;99.90;;;;;;5054694;28;20044;-76
2022/08/17 07:21:32;;;;;;;49.03;40.67;;;19.60;99.90;;;;;;5054756;28;20037;-76
2022/08/17 07:24:27;;;;;;;51.00;41.38;;;19.70;99.90;;;;;;5037808;28;20033;-76
2022/08/17 07:27:13;;;;;;;50.17;39.05;;;19.80;99.90;;;;;;5054394;28;20037;-77
2022/08/17 07:29:48;;;;;;;48.58;41.08;;;19.80;99.90;;;;;;5037730;28;20037;-76
2022/08/17 07:32:17;;;;;;;56.20;45.17;;;19.90;99.90;;;;;;5054433;28;20382;-77
2022/08/17 07:35:19;;;;;;;53.08;42.63;;;19.90;99.90;;;;;;5036744;28;20043;-76
2022/08/17 07:37:54;;;;;;;58.95;46.30;;;19.90;99.90;;;;;;5051779;28;20037;-76
2022/08/17 07:40:25;;;;;;;56.25;45.13;;;19.90;99.90;;;;;;5031299;28;20124;-78
2022/08/17 07:43:05;;;;;;;50.63;41.47;;;19.90;99.90;;;;;;5045503;28;20087;-73
2022/08/17 07:48:22;;;;;;;50.33;39.60;;;20.10;99.90;;;;;;5050754;28;20045;-77
2022/08/17 07:50:48;;;;;;;45.43;37.67;;;20.20;99.90;;;;;;5058952;28;20071;-77
2022/08/17 07:53:23;;;;;;;47.88;37.50;;;20.30;99.90;;;;;;5049154;28;20300;-78
2022/08/17 07:55:50;;;;;;;45.17;36.28;;;20.40;99.90;;;;;;5052643;28;20094;-78
2022/08/17 07:58:18;;;;;;;47.90;37.45;;;20.50;99.90;;;;;;5051497;28;20497;-77
2022/08/17 08:00:44;;;;;;;47.05;37.67;;;20.70;99.90;;;;;;5052043;28;20493;-77
2022/08/17 08:03:25;;;;;;;54.60;41.67;;;20.90;99.90;;;;;;5032911;28;20068;-77
2022/08/17 08:05:58;;;;;;;50.60;36.50;;;20.90;99.90;;;;;;5018243;28;20052;-78
2022/08/17 08:08:30;;;;;;;47.88;36.75;;;20.90;99.90;;;;;;5021067;28;20048;-77
2022/08/17 08:11:01;;;;;;;60.20;35.42;;;21.00;99.90;;;;;;5050555;28;21414;-77
2022/08/17 08:13:29;;;;;;;39.17;32.90;;;21.00;99.90;;;;;;5034419;28;20050;-76
2022/08/17 08:16:12;;;;;;;48.13;38.80;;;21.00;99.90;;;;;;5052318;28;20037;-76
2022/08/17 08:18:44;;;;;;;48.85;34.80;;;21.10;99.90;;;;;;5045299;28;20410;-77
2022/08/17 08:21:46;;;;;;;46.90;36.83;;;21.10;99.90;;;;;;5021886;28;20041;-76
2022/08/17 08:24:41;;;;;;;35.65;31.35;;;21.20;99.90;;;;;;5046439;28;20033;-76
2022/08/17 08:27:26;;;;;;;40.83;31.67;;;21.30;99.90;;;;;;5016558;28;20037;-76
2022/08/17 08:30:03;;;;;;;35.30;30.10;;;21.30;99.90;;;;;;5036088;28;20034;-76
2022/08/17 08:32:35;;;;;;;34.25;29.92;;;21.40;99.90;;;;;;5025412;28;20037;-76
2022/08/17 08:35:36;;;;;;;42.33;35.83;;;21.40;99.90;;;;;;5041309;28;20121;-76
2022/08/17 08:38:35;;;;;;;44.33;32.80;;;21.40;99.90;;;;;;5013532;28;20045;-76
2022/08/17 08:41:26;;;;;;;44.03;34.35;;;21.40;99.90;;;;;;5046465;28;20033;-76
2022/08/17 08:44:06;;;;;;;38.90;32.30;;;21.50;99.90;;;;;;5040956;28;20116;-77
2022/08/17 08:46:44;;;;;;;48.03;36.30;;;21.50;99.90;;;;;;5049342;28;20480;-77
2022/08/17 08:49:27;;;;;;;54.45;33.80;;;21.50;99.90;;;;;;5054809;28;20068;-76
2022/08/17 08:51:56;;;;;;;43.53;34.38;;;21.50;99.90;;;;;;5045997;28;20037;-78
2022/08/17 08:54:52;;;;;;;42.58;35.92;;;21.50;99.90;;;;;;5047490;28;20068;-77
2022/08/17 08:57:20;;;;;;;40.53;34.50;;;21.50;99.90;;;;;;5041174;28;20045;-77
2022/08/17 09:00:34;;;;;;;39.08;32.05;;;21.50;99.90;;;;;;5036689;28;20045;-77
2022/08/17 09:03:03;;;;;;;39.53;30.90;;;21.50;99.90;;;;;;5038124;28;20124;-77
2022/08/17 09:05:38;;;;;;;42.90;30.73;;;21.50;99.90;;;;;;5046401;28;20047;-77
2022/08/17 09:08:06;;;;;;;36.95;32.58;;;21.50;99.90;;;;;;5054552;28;20036;-77
2022/08/17 09:10:55;;;;;;;40.47;34.58;;;21.60;99.90;;;;;;5037964;28;20505;-77
2022/08/17 09:13:45;;;;;;;41.80;37.22;;;21.60;99.90;;;;;;5032361;28;20067;-77
2022/08/17 09:16:28;;;;;;;38.63;34.00;;;21.60;99.90;;;;;;5067353;28;20072;-77
2022/08/17 09:19:03;;;;;;;38.70;33.25;;;21.70;99.90;;;;;;5044944;28;20033;-77
2022/08/17 09:22:06;;;;;;;46.53;38.28;;;21.80;99.90;;;;;;5035125;28;20048;-78
2022/08/17 09:24:47;;;;;;;44.00;36.38;;;21.70;99.90;;;;;;4966971;28;20206;-77
2022/08/17 09:27:20;;;;;;;46.75;39.20;;;21.70;99.90;;;;;;5038122;28;20079;-77
2022/08/17 09:29:57;;;;;;;45.70;38.88;;;21.60;99.90;;;;;;5053492;28;20041;-77
2022/08/17 09:32:55;;;;;;;47.85;33.97;;;21.60;99.90;;;;;;5032796;28;20036;-77
2022/08/17 09:35:36;;;;;;;43.45;35.50;;;21.60;99.90;;;;;;5040897;28;20048;-77
2022/08/17 09:38:09;;;;;;;43.25;34.67;;;21.60;99.90;;;;;;5033075;28;20056;-77
2022/08/17 09:40:57;;;;;;;38.20;32.15;;;21.60;99.90;;;;;;5030941;28;20120;-77
2022/08/17 09:43:51;;;;;;;38.85;32.22;;;21.50;99.90;;;;;;5055379;28;20051;-77
2022/08/17 09:46:19;;;;;;;37.97;32.05;;;21.50;99.90;;;;;;5055481;28;20111;-77
2022/08/17 09:49:02;;;;;;;38.80;34.55;;;21.40;99.90;;;;;;5037282;28;20041;-77
2022/08/17 09:51:35;;;;;;;42.63;34.70;;;21.50;99.90;;;;;;5045317;28;20040;-77
2022/08/17 09:54:03;;;;;;;44.17;35.60;;;21.50;99.90;;;;;;5022505;28;20441;-77
2022/08/17 09:56:47;;;;;;;45.50;34.53;;;21.50;99.90;;;;;;5036516;28;20497;-77
2022/08/17 09:59:43;;;;;;;43.10;36.75;;;21.50;99.90;;;;;;5049811;28;20029;-77
2022/08/17 10:02:52;;;;;;;43.78;37.35;;;21.50;99.90;;;;;;5032063;28;20121;-77
2022/08/17 10:05:48;;;;;;;44.15;36.10;;;21.40;99.90;;;;;;5065282;28;20394;-77
2022/08/17 10:08:26;;;;;;;45.75;35.25;;;21.60;99.90;;;;;;5056401;28;20039;-78
2022/08/17 10:10:58;;;;;;;42.97;36.42;;;21.50;99.90;;;;;;5050088;28;20040;-77
2022/08/17 10:13:26;;;;;;;;;;;21.50;99.90;;;;;;5054819;28;20072;-77
2022/08/17 10:16:15;;;;;;;42.08;31.83;;;21.60;99.90;;;;;;5039157;28;20332;-77
2022/08/17 10:19:10;;;;;;;38.15;31.27;;;21.60;99.90;;;;;;5022331;28;20045;-77
2022/08/17 10:27:17;;;;;;;36.90;31.55;;;21.60;99.90;;;;;;5051485;28;20041;-77
2022/08/17 10:29:49;;;;;;;35.80;28.90;;;21.60;99.90;;;;;;5040881;28;20041;-77
2022/08/17 10:32:34;;;;;;;40.38;32.10;;;21.70;99.90;;;;;;5039563;28;20076;-77
2022/08/17 10:34:59;;;;;;;42.05;34.83;;;21.70;99.90;;;;;;5058805;28;20037;-77
2022/08/17 10:37:47;;;;;;;40.85;34.00;;;21.70;99.90;;;;;;5086033;28;20396;-77
2022/08/17 10:40:34;;;;;;;38.78;30.98;;;21.70;99.90;;;;;;5069699;28;20120;-77
2022/08/17 10:43:03;;;;;;;37.38;32.15;;;21.80;99.90;;;;;;5044607;28;20444;-76
2022/08/17 10:45:51;;;;;;;46.55;38.53;;;21.80;99.90;;;;;;5050709;28;20435;-77
2022/08/17 10:48:35;;;;;;;45.95;37.13;;;21.70;99.90;;;;;;5039305;28;20080;-76
2022/08/17 10:51:11;;;;;;;46.08;37.95;;;21.80;99.90;;;;;;5037359;28;20450;-77
2022/08/17 10:53:37;;;;;;;47.67;40.15;;;21.80;99.90;;;;;;5039829;28;20052;-77
2022/08/17 10:56:16;;;;;;;52.53;40.95;;;21.90;99.90;;;;;;5044942;28;20396;-77
2022/08/17 10:58:53;;;;;;;46.47;41.30;;;21.90;99.90;;;;;;5051053;28;20424;-77
2022/08/17 11:01:30;;;;;;;49.00;40.70;;;22.00;99.90;;;;;;5048596;28;20525;-77
2022/08/17 11:04:02;;;;;;;44.58;39.42;;;22.10;99.90;;;;;;5054413;28;20065;-78
2022/08/17 11:06:40;;;;;;;42.35;36.97;;;22.10;99.90;;;;;;5033963;28;20375;-78
2022/08/17 11:09:21;;;;;;;42.20;37.67;;;22.20;99.90;;;;;;5044962;28;20064;-77
2022/08/17 11:11:57;;;;;;;38.35;33.85;;;22.30;99.90;;;;;;5052991;28;20042;-78
2022/08/17 11:14:54;;;;;;;41.85;36.65;;;22.50;99.90;;;;;;5037247;28;20071;-78
2022/08/17 11:18:04;;;;;;;41.70;36.53;;;22.70;99.90;;;;;;5052327;28;20083;-78
2022/08/17 11:20:44;;;;;;;37.50;31.83;;;22.80;99.90;;;;;;5050244;28;20501;-77
2022/08/17 11:23:17;;;;;;;36.05;31.67;;;22.90;99.90;;;;;;5051114;28;20420;-77
2022/08/17 11:25:51;;;;;;;32.38;29.08;;;22.90;99.90;;;;;;5034685;28;20037;-77
2022/08/17 11:28:34;;;;;;;31.15;27.92;;;23.00;99.90;;;;;;5031409;28;20045;-77
2022/08/17 11:31:28;;;;;;;33.63;28.85;;;22.90;99.90;;;;;;5044105;28;20393;-78
2022/08/17 11:34:03;;;;;;;28.83;25.73;;;22.80;99.90;;;;;;5051752;28;20409;-77
2022/08/17 11:36:38;;;;;;;28.33;25.42;;;22.90;99.90;;;;;;5060678;28;20033;-77
2022/08/17 11:39:13;;;;;;;25.35;22.70;;;22.80;99.90;;;;;;5039992;28;20045;-78
2022/08/17 11:42:04;;;;;;;27.52;23.13;;;23.00;99.90;;;;;;5059787;28;20049;-77
2022/08/17 11:44:45;;;;;;;26.02;23.27;;;22.90;99.90;;;;;;5039102;28;20046;-77
2022/08/17 11:53:04;;;;;;;31.98;28.65;;;22.90;99.90;;;;;;5068532;28;20068;-77
2022/08/17 11:55:30;;;;;;;31.48;28.17;;;22.90;99.90;;;;;;5049709;28;20052;-77
2022/08/17 11:58:16;;;;;;;31.27;25.88;;;22.90;99.90;;;;;;5045369;28;20033;-77
2022/08/17 12:00:44;;;;;;;26.33;22.50;;;22.90;99.90;;;;;;5032959;28;20490;-77
2022/08/17 12:03:33;;;;;;;23.88;21.33;;;23.00;99.90;;;;;;5067362;28;20064;-76
2022/08/17 12:06:09;;;;;;;22.63;20.27;;;22.90;99.90;;;;;;5034001;28;20051;-77
2022/08/17 12:08:42;;;;;;;22.83;20.15;;;22.90;99.90;;;;;;5047004;28;20446;-77
2022/08/17 12:11:19;;;;;;;27.05;21.80;;;22.90;99.90;;;;;;5033109;28;20049;-77
2022/08/17 12:13:48;;;;;;;23.63;21.13;;;22.80;99.90;;;;;;5045377;28;20456;-77
2022/08/17 12:16:19;;;;;;;22.08;19.67;;;22.90;99.90;;;;;;5058670;28;20079;-77
2022/08/17 12:18:57;;;;;;;21.65;19.23;;;22.90;99.90;;;;;;5047258;28;20029;-77
2022/08/17 12:21:59;;;;;;;19.95;17.80;;;22.90;99.90;;;;;;5033884;28;20466;-78
2022/08/17 12:24:40;;;;;;;21.25;19.08;;;23.00;99.90;;;;;;5040415;28;20098;-77
2022/08/17 12:27:08;;;;;;;18.85;16.17;;;23.00;99.90;;;;;;5049836;28;20064;-78
2022/08/17 12:29:37;;;;;;;17.42;15.13;;;23.00;99.90;;;;;;5032609;28;20030;-78
2022/08/17 12:32:05;;;;;;;17.23;15.43;;;23.00;99.90;;;;;;5026723;28;20048;-78
2022/08/17 12:34:39;;;;;;;18.85;15.55;;;23.00;99.90;;;;;;5050105;28;20044;-79
2022/08/17 12:37:14;;;;;;;15.63;13.93;;;23.00;99.90;;;;;;5065324;28;20091;-77
2022/08/17 12:39:51;;;;;;;16.65;14.80;;;23.00;99.90;;;;;;5056597;28;20048;-77
2022/08/17 12:42:28;;;;;;;17.75;15.38;;;23.10;99.90;;;;;;5068401;28;20041;-77
2022/08/17 12:44:54;;;;;;;17.67;13.82;;;23.10;99.90;;;;;;5045190;28;20036;-83
2022/08/17 12:47:20;;;;;;;16.10;14.13;;;22.90;99.90;;;;;;5036810;28;20044;-82
2022/08/17 12:49:49;;;;;;;16.98;13.63;;;23.00;99.90;;;;;;5032995;28;20041;-82
2022/08/17 12:52:27;;;;;;;15.85;14.02;;;23.00;99.90;;;;;;5049402;28;20077;-82
2022/08/17 12:55:09;;;;;;;15.77;12.68;;;23.10;99.90;;;;;;5040103;28;20040;-83
2022/08/17 12:57:41;;;;;;;16.65;12.25;;;23.10;99.90;;;;;;5052737;28;20128;-83
2022/08/17 13:00:28;;;;;;;13.88;10.95;;;23.10;99.90;;;;;;5063764;28;20030;-82
2022/08/17 13:03:06;;;;;;;14.20;10.93;;;23.10;99.90;;;;;;5033813;28;20056;-83
2022/08/17 13:05:38;;;;;;;14.55;12.30;;;23.00;99.90;;;;;;5052772;28;20114;-83
2022/08/17 13:08:13;;;;;;;;;;;22.90;99.90;;;;;;5033682;28;20037;-82
2022/08/17 13:10:39;;;;;;;14.20;11.80;;;23.00;99.90;;;;;;5076701;28;19924;-83
2022/08/17 13:13:24;;;;;;;17.35;13.90;;;23.00;99.90;;;;;;5052218;28;20045;-83
2022/08/17 13:15:58;;;;;;;15.05;12.85;;;23.00;99.90;;;;;;5047758;28;20053;-83
2022/08/17 13:18:57;;;;;;;16.25;13.63;;;23.00;99.90;;;;;;5052726;28;20441;-82
2022/08/17 13:21:29;;;;;;;13.88;12.45;;;23.00;99.90;;;;;;5022035;28;20104;-82
2022/08/17 13:24:10;;;;;;;15.63;13.75;;;23.00;99.90;;;;;;5015773;28;20065;-78
2022/08/17 13:27:01;;;;;;;20.02;15.40;;;23.10;99.90;;;;;;5018060;28;20507;-78
2022/08/17 13:29:32;;;;;;;18.15;16.05;;;23.00;99.90;;;;;;5032336;28;20064;-78